aviador You're here:

KEWN Decoded Metar

NEW BERN in NC, USA
Report Time2017-09-24 22:54:00
UTC Time2017-09-24 23:08:34
Flight Rules vfr VFR
Wind050° at 06 kt
W.Decomp.*RWY 04: 5.7 kt HW 1.9 kt RCW
RWY 14: 0.8 kt HW 5.9 kt LCW
W.Rank050° ranks 16
Current wind is below 050° avg. (7.4)
Visibility9999 m
Phenomena:N/A
Clouds:N/A
Expected CloudBase > 3,200 ft AGL from Temp-Dew spread
CeilingNone
Temp26°C (ISA +11)
Dew Point18°C (61% RH)
QNH1015 hPa
Density Alt1,490 ft
Elevation10 ft
Report Wrong Elevation
Raw Report
KEWN 242254Z 05006KT 10SM CLR 26/18 A2997 RMK AO2 SLP149
T02560183=

Extra information for KEWN:More info

Metar Taf Metar & Taf Last 4 Metars F.Rules Stats Wind Profile Meteogram Temp Stats Airport Information Weather charts Add Link Nearby VenuesMetar ALERT Operation Metar Decoded Social comments

AIRNAV info for KEWN